sensor_id;sensor_type;location;lat;lon;timestamp;pressure;altitude;pressure_sealevel;temperature;humidity
26112;BME280;13829;48.990;8.346;2023-05-23T00:00:57;100287.03;;;18.84;100.00
26112;BME280;13829;48.990;8.346;2023-05-23T00:03:25;100280.16;;;18.77;100.00
26112;BME280;13829;48.990;8.346;2023-05-23T00:05:53;100288.03;;;18.80;100.00
26112;BME280;13829;48.990;8.346;2023-05-23T00:08:21;100282.94;;;18.72;100.00
26112;BME280;13829;48.990;8.346;2023-05-23T00:10:49;100289.25;;;18.69;100.00
26112;BME280;13829;48.990;8.346;2023-05-23T00:13:17;100279.72;;;18.61;100.00
26112;BME280;13829;48.990;8.346;2023-05-23T00:15:44;100286.03;;;18.58;100.00
26112;BME280;13829;48.990;8.346;2023-05-23T00:18:11;100287.78;;;18.59;100.00
26112;BME280;13829;48.990;8.346;2023-05-23T00:20:40;100301.94;;;18.61;100.00
26112;BME280;13829;48.990;8.346;2023-05-23T00:23:07;100300.19;;;18.60;100.00
26112;BME280;13829;48.990;8.346;2023-05-23T00:25:35;100301.03;;;18.62;100.00
26112;BME280;13829;48.990;8.346;2023-05-23T00:28:04;100305.31;;;18.66;100.00
26112;BME280;13829;48.990;8.346;2023-05-23T00:30:32;100295.72;;;18.61;100.00
26112;BME280;13829;48.990;8.346;2023-05-23T00:32:59;100293.94;;;18.61;100.00
26112;BME280;13829;48.990;8.346;2023-05-23T00:35:27;100305.69;;;18.54;100.00
26112;BME280;13829;48.990;8.346;2023-05-23T00:37:54;100304.94;;;18.49;100.00
26112;BME280;13829;48.990;8.346;2023-05-23T00:40:22;100306.66;;;18.51;100.00
26112;BME280;13829;48.990;8.346;2023-05-23T00:42:49;100299.63;;;18.49;100.00
26112;BME280;13829;48.990;8.346;2023-05-23T00:45:17;100293.38;;;18.50;100.00
26112;BME280;13829;48.990;8.346;2023-05-23T00:47:47;100304.22;;;18.44;100.00
26112;BME280;13829;48.990;8.346;2023-05-23T00:50:14;100296.97;;;18.49;100.00
26112;BME280;13829;48.990;8.346;2023-05-23T00:52:44;100305.75;;;18.52;100.00
26112;BME280;13829;48.990;8.346;2023-05-23T00:55:12;100302.28;;;18.49;100.00
26112;BME280;13829;48.990;8.346;2023-05-23T00:57:39;100296.72;;;18.56;100.00
26112;BME280;13829;48.990;8.346;2023-05-23T01:00:11;100309.09;;;18.59;100.00
26112;BME280;13829;48.990;8.346;2023-05-23T01:02:44;100309.59;;;18.72;100.00
26112;BME280;13829;48.990;8.346;2023-05-23T01:05:13;100307.34;;;18.58;100.00
26112;BME280;13829;48.990;8.346;2023-05-23T01:07:42;100305.41;;;18.63;100.00
26112;BME280;13829;48.990;8.346;2023-05-23T01:10:10;100307.31;;;18.60;100.00
26112;BME280;13829;48.990;8.346;2023-05-23T01:12:47;100300.34;;;18.54;100.00
26112;BME280;13829;48.990;8.346;2023-05-23T01:15:19;100312.75;;;18.55;100.00
26112;BME280;13829;48.990;8.346;2023-05-23T01:17:57;100313.72;;;18.52;100.00
26112;BME280;13829;48.990;8.346;2023-05-23T01:20:30;100310.22;;;18.50;100.00
26112;BME280;13829;48.990;8.346;2023-05-23T01:23:29;100317.59;;;18.40;100.00
26112;BME280;13829;48.990;8.346;2023-05-23T01:26:15;100316.00;;;18.35;100.00
26112;BME280;13829;48.990;8.346;2023-05-23T01:28:50;100310.06;;;18.25;100.00
26112;BME280;13829;48.990;8.346;2023-05-23T01:31:20;100306.94;;;18.11;100.00
26112;BME280;13829;48.990;8.346;2023-05-23T01:33:51;100310.50;;;18.09;100.00
26112;BME280;13829;48.990;8.346;2023-05-23T01:36:20;100315.91;;;18.06;100.00
26112;BME280;13829;48.990;8.346;2023-05-23T01:38:47;100316.91;;;18.02;100.00
26112;BME280;13829;48.990;8.346;2023-05-23T01:41:14;100324.19;;;17.96;100.00
26112;BME280;13829;48.990;8.346;2023-05-23T01:43:41;100324.09;;;17.99;100.00
26112;BME280;13829;48.990;8.346;2023-05-23T01:46:09;100327.69;;;17.98;100.00
26112;BME280;13829;48.990;8.346;2023-05-23T01:48:38;100325.97;;;17.95;100.00
26112;BME280;13829;48.990;8.346;2023-05-23T01:51:05;100323.34;;;17.92;100.00
26112;BME280;13829;48.990;8.346;2023-05-23T01:53:34;100325.19;;;17.90;100.00
26112;BME280;13829;48.990;8.346;2023-05-23T01:56:02;100329.56;;;17.92;100.00
26112;BME280;13829;48.990;8.346;2023-05-23T01:58:29;100333.97;;;17.95;100.00
26112;BME280;13829;48.990;8.346;2023-05-23T02:00:56;100329.59;;;17.91;100.00
26112;BME280;13829;48.990;8.346;2023-05-23T02:03:25;100331.44;;;17.89;100.00
26112;BME280;13829;48.990;8.346;2023-05-23T02:05:52;100329.72;;;17.86;100.00
26112;BME280;13829;48.990;8.346;2023-05-23T02:08:19;100339.56;;;17.83;100.00
26112;BME280;13829;48.990;8.346;2023-05-23T02:10:46;100328.94;;;17.83;100.00
26112;BME280;13829;48.990;8.346;2023-05-23T02:13:13;100337.75;;;17.85;100.00
26112;BME280;13829;48.990;8.346;2023-05-23T02:15:40;100331.59;;;17.83;100.00
26112;BME280;13829;48.990;8.346;2023-05-23T02:18:07;100339.56;;;17.83;100.00
26112;BME280;13829;48.990;8.346;2023-05-23T02:20:35;100339.47;;;17.86;100.00
26112;BME280;13829;48.990;8.346;2023-05-23T02:23:02;100337.66;;;17.88;100.00
26112;BME280;13829;48.990;8.346;2023-05-23T02:25:29;100330.59;;;17.87;100.00
26112;BME280;13829;48.990;8.346;2023-05-23T02:27:56;100334.91;;;17.91;100.00
26112;BME280;13829;48.990;8.346;2023-05-23T02:30:23;100337.66;;;17.88;100.00
26112;BME280;13829;48.990;8.346;2023-05-23T02:32:50;100337.53;;;17.94;100.00
26112;BME280;13829;48.990;8.346;2023-05-23T02:35:17;100340.22;;;17.92;100.00
26112;BME280;13829;48.990;8.346;2023-05-23T02:37:46;100341.00;;;17.96;100.00
26112;BME280;13829;48.990;8.346;2023-05-23T02:40:13;100338.41;;;17.93;100.00
26112;BME280;13829;48.990;8.346;2023-05-23T02:42:40;100334.91;;;17.91;100.00
26112;BME280;13829;48.990;8.346;2023-05-23T02:45:08;100343.06;;;17.85;100.00
26112;BME280;13829;48.990;8.346;2023-05-23T02:47:35;100350.47;;;17.73;100.00
26112;BME280;13829;48.990;8.346;2023-05-23T02:50:02;100347.75;;;17.75;100.00
26112;BME280;13829;48.990;8.346;2023-05-23T02:52:30;100347.91;;;17.69;100.00
26112;BME280;13829;48.990;8.346;2023-05-23T02:54:59;100350.63;;;17.67;100.00
26112;BME280;13829;48.990;8.346;2023-05-23T02:57:26;100349.63;;;17.71;100.00
26112;BME280;13829;48.990;8.346;2023-05-23T02:59:53;100344.25;;;17.73;100.00
26112;BME280;13829;48.990;8.346;2023-05-23T03:02:20;100342.28;;;17.81;100.00
26112;BME280;13829;48.990;8.346;2023-05-23T03:04:47;100342.97;;;17.88;100.00
26112;BME280;13829;48.990;8.346;2023-05-23T03:07:15;100344.72;;;17.89;100.00
26112;BME280;13829;48.990;8.346;2023-05-23T03:09:42;100347.28;;;17.95;100.00
26112;BME280;13829;48.990;8.346;2023-05-23T03:12:10;100347.16;;;17.98;100.00
26112;BME280;13829;48.990;8.346;2023-05-23T03:14:37;100349.16;;;17.90;100.00
26112;BME280;13829;48.990;8.346;2023-05-23T03:17:04;100350.13;;;17.86;100.00
26112;BME280;13829;48.990;8.346;2023-05-23T03:19:31;100351.81;;;17.90;100.00
26112;BME280;13829;48.990;8.346;2023-05-23T03:21:58;100362.59;;;17.84;100.00
26112;BME280;13829;48.990;8.346;2023-05-23T03:24:25;100363.41;;;17.86;100.00
26112;BME280;13829;48.990;8.346;2023-05-23T03:26:52;100357.13;;;17.90;100.00
26112;BME280;13829;48.990;8.346;2023-05-23T03:29:20;100365.91;;;17.95;100.00
26112;BME280;13829;48.990;8.346;2023-05-23T03:31:47;100362.28;;;17.96;100.00
26112;BME280;13829;48.990;8.346;2023-05-23T03:34:14;100364.13;;;17.94;100.00
26112;BME280;13829;48.990;8.346;2023-05-23T03:36:41;100366.66;;;18.00;100.00
26112;BME280;13829;48.990;8.346;2023-05-23T03:39:08;100378.09;;;18.02;100.00
26112;BME280;13829;48.990;8.346;2023-05-23T03:41:35;100378.84;;;18.07;100.00
26112;BME280;13829;48.990;8.346;2023-05-23T03:44:02;100376.13;;;18.11;100.00
26112;BME280;13829;48.990;8.346;2023-05-23T03:46:30;100372.63;;;18.08;100.00
26112;BME280;13829;48.990;8.346;2023-05-23T03:48:57;100377.03;;;18.09;100.00
26112;BME280;13829;48.990;8.346;2023-05-23T03:51:24;100377.91;;;18.10;100.00
26112;BME280;13829;48.990;8.346;2023-05-23T03:53:52;100375.16;;;18.13;100.00
26112;BME280;13829;48.990;8.346;2023-05-23T03:56:19;100374.06;;;18.22;100.00
26112;BME280;13829;48.990;8.346;2023-05-23T03:58:47;100373.19;;;18.20;100.00
26112;BME280;13829;48.990;8.346;2023-05-23T04:01:14;100386.56;;;18.18;100.00
26112;BME280;13829;48.990;8.346;2023-05-23T04:03:42;100379.44;;;18.19;100.00
26112;BME280;13829;48.990;8.346;2023-05-23T04:06:09;100381.13;;;18.23;100.00
26112;BME280;13829;48.990;8.346;2023-05-23T04:08:36;100387.31;;;18.23;100.00
26112;BME280;13829;48.990;8.346;2023-05-23T04:11:06;100389.91;;;18.25;100.00
26112;BME280;13829;48.990;8.346;2023-05-23T04:13:33;100392.69;;;18.22;100.00
26112;BME280;13829;48.990;8.346;2023-05-23T04:16:00;100395.41;;;18.20;100.00
26112;BME280;13829;48.990;8.346;2023-05-23T04:18:30;100394.44;;;18.21;100.00
26112;BME280;13829;48.990;8.346;2023-05-23T04:20:59;100398.81;;;18.24;100.00
26112;BME280;13829;48.990;8.346;2023-05-23T04:23:26;100398.81;;;18.25;100.00
26112;BME280;13829;48.990;8.346;2023-05-23T04:25:53;100400.63;;;18.23;100.00
26112;BME280;13829;48.990;8.346;2023-05-23T04:28:22;100402.31;;;18.26;100.00
26112;BME280;13829;48.990;8.346;2023-05-23T04:30:48;100404.94;;;18.29;100.00
26112;BME280;13829;48.990;8.346;2023-05-23T04:33:17;100393.34;;;18.30;100.00
26112;BME280;13829;48.990;8.346;2023-05-23T04:35:44;100400.34;;;18.33;100.00
26112;BME280;13829;48.990;8.346;2023-05-23T04:38:12;100404.78;;;18.34;100.00
26112;BME280;13829;48.990;8.346;2023-05-23T04:40:39;100411.94;;;18.32;100.00
26112;BME280;13829;48.990;8.346;2023-05-23T04:43:06;100411.75;;;18.38;100.00
26112;BME280;13829;48.990;8.346;2023-05-23T04:45:34;100416.13;;;18.40;100.00
26112;BME280;13829;48.990;8.346;2023-05-23T04:48:02;100415.19;;;18.43;100.00
26112;BME280;13829;48.990;8.346;2023-05-23T04:50:29;100423.03;;;18.48;100.00
26112;BME280;13829;48.990;8.346;2023-05-23T04:52:57;100428.03;;;18.60;100.00
26112;BME280;13829;48.990;8.346;2023-05-23T04:55:26;100421.78;;;18.61;100.00
26112;BME280;13829;48.990;8.346;2023-05-23T04:57:53;100431.59;;;18.59;100.00
26112;BME280;13829;48.990;8.346;2023-05-23T05:00:20;100427.13;;;18.61;100.00
26112;BME280;13829;48.990;8.346;2023-05-23T05:02:48;100415.34;;;18.68;100.00
26112;BME280;13829;48.990;8.346;2023-05-23T05:05:15;100425.19;;;18.66;100.00
26112;BME280;13829;48.990;8.346;2023-05-23T05:07:42;100428.88;;;18.61;100.00
26112;BME280;13829;48.990;8.346;2023-05-23T05:10:10;100433.81;;;18.74;100.00
26112;BME280;13829;48.990;8.346;2023-05-23T05:12:42;100430.91;;;18.84;100.00
26112;BME280;13829;48.990;8.346;2023-05-23T05:15:11;100432.69;;;18.85;100.00
26112;BME280;13829;48.990;8.346;2023-05-23T05:17:38;100434.03;;;19.00;93.42
26112;BME280;13829;48.990;8.346;2023-05-23T05:20:07;100442.25;;;18.92;94.17
26112;BME280;13829;48.990;8.346;2023-05-23T05:22:35;100444.00;;;18.93;94.07
26112;BME280;13829;48.990;8.346;2023-05-23T05:25:06;100439.78;;;18.84;91.62
26112;BME280;13829;48.990;8.346;2023-05-23T05:27:33;100436.28;;;18.82;92.00
26112;BME280;13829;48.990;8.346;2023-05-23T05:30:06;100444.56;;;19.04;89.87
26112;BME280;13829;48.990;8.346;2023-05-23T05:32:33;100457.06;;;19.02;87.73
26112;BME280;13829;48.990;8.346;2023-05-23T05:35:00;100454.38;;;19.02;87.25
26112;BME280;13829;48.990;8.346;2023-05-23T05:37:27;100455.66;;;18.89;87.87
26112;BME280;13829;48.990;8.346;2023-05-23T05:39:55;100458.53;;;19.13;85.89
26112;BME280;13829;48.990;8.346;2023-05-23T05:42:23;100460.50;;;19.06;85.26
26112;BME280;13829;48.990;8.346;2023-05-23T05:44:50;100473.72;;;19.11;84.48
26112;BME280;13829;48.990;8.346;2023-05-23T05:47:19;100456.09;;;19.05;84.24
26112;BME280;13829;48.990;8.346;2023-05-23T05:49:46;100469.00;;;19.19;84.01
26112;BME280;13829;48.990;8.346;2023-05-23T05:52:13;100472.97;;;19.05;83.68
26112;BME280;13829;48.990;8.346;2023-05-23T05:54:39;100465.25;;;19.26;85.48
26112;BME280;13829;48.990;8.346;2023-05-23T05:57:06;100469.38;;;19.36;83.37
26112;BME280;13829;48.990;8.346;2023-05-23T05:59:33;100470.34;;;19.34;84.06
26112;BME280;13829;48.990;8.346;2023-05-23T06:02:00;100476.22;;;19.45;83.69
26112;BME280;13829;48.990;8.346;2023-05-23T06:04:29;100476.25;;;19.74;81.70
26112;BME280;13829;48.990;8.346;2023-05-23T06:06:56;100475.22;;;19.78;82.83
26112;BME280;13829;48.990;8.346;2023-05-23T06:09:23;100486.53;;;19.86;80.55
26112;BME280;13829;48.990;8.346;2023-05-23T06:11:50;100488.56;;;19.78;81.62
26112;BME280;13829;48.990;8.346;2023-05-23T06:14:17;100497.81;;;19.66;81.13
26112;BME280;13829;48.990;8.346;2023-05-23T06:16:44;100489.06;;;19.62;83.16
26112;BME280;13829;48.990;8.346;2023-05-23T06:19:11;100492.44;;;19.67;82.07
26112;BME280;13829;48.990;8.346;2023-05-23T06:21:39;100503.97;;;19.68;80.86
26112;BME280;13829;48.990;8.346;2023-05-23T06:24:06;100510.59;;;19.56;80.37
26112;BME280;13829;48.990;8.346;2023-05-23T06:26:33;100508.41;;;19.39;80.31
26112;BME280;13829;48.990;8.346;2023-05-23T06:29:02;100514.09;;;19.28;82.12
26112;BME280;13829;48.990;8.346;2023-05-23T06:31:29;100519.38;;;19.30;81.49
26112;BME280;13829;48.990;8.346;2023-05-23T06:33:56;100523.19;;;19.51;82.34
26112;BME280;13829;48.990;8.346;2023-05-23T06:36:23;100527.63;;;19.50;82.48
26112;BME280;13829;48.990;8.346;2023-05-23T06:38:51;100538.19;;;19.55;81.14
26112;BME280;13829;48.990;8.346;2023-05-23T06:41:18;100532.09;;;19.50;81.84
26112;BME280;13829;48.990;8.346;2023-05-23T06:43:45;100534.50;;;19.59;82.19
26112;BME280;13829;48.990;8.346;2023-05-23T06:46:12;100544.44;;;19.84;81.35
26112;BME280;13829;48.990;8.346;2023-05-23T06:48:39;100550.22;;;20.52;74.62
26112;BME280;13829;48.990;8.346;2023-05-23T06:51:06;100545.06;;;21.94;66.01
26112;BME280;13829;48.990;8.346;2023-05-23T06:53:32;100558.91;;;22.06;61.19
26112;BME280;13829;48.990;8.346;2023-05-23T06:56:01;100550.03;;;22.04;61.00
26112;BME280;13829;48.990;8.346;2023-05-23T06:58:28;100548.13;;;22.29;59.87
26112;BME280;13829;48.990;8.346;2023-05-23T07:00:55;100557.06;;;22.51;58.09
26112;BME280;13829;48.990;8.346;2023-05-23T07:03:22;100557.50;;;22.83;57.09
26112;BME280;13829;48.990;8.346;2023-05-23T07:05:49;100560.53;;;22.95;56.51
26112;BME280;13829;48.990;8.346;2023-05-23T07:08:16;100562.94;;;23.22;56.13
26112;BME280;13829;48.990;8.346;2023-05-23T07:10:43;100575.88;;;22.71;56.33
26112;BME280;13829;48.990;8.346;2023-05-23T07:13:12;100561.47;;;23.15;55.67
26112;BME280;13829;48.990;8.346;2023-05-23T07:15:39;100562.81;;;22.84;55.04
26112;BME280;13829;48.990;8.346;2023-05-23T07:18:06;100571.97;;;22.58;56.05
26112;BME280;13829;48.990;8.346;2023-05-23T07:20:33;100576.44;;;21.91;59.46
26112;BME280;13829;48.990;8.346;2023-05-23T07:23:00;100580.44;;;21.31;60.69
26112;BME280;13829;48.990;8.346;2023-05-23T07:25:26;100590.41;;;21.02;60.83
26112;BME280;13829;48.990;8.346;2023-05-23T07:27:54;100584.78;;;20.85;61.07
26112;BME280;13829;48.990;8.346;2023-05-23T07:30:22;100589.31;;;20.54;62.31
26112;BME280;13829;48.990;8.346;2023-05-23T07:32:49;100590.50;;;20.19;63.48
26112;BME280;13829;48.990;8.346;2023-05-23T07:35:17;100597.28;;;20.01;65.29
26112;BME280;13829;48.990;8.346;2023-05-23T07:37:48;100592.06;;;19.98;66.51
26112;BME280;13829;48.990;8.346;2023-05-23T07:40:15;100591.56;;;19.85;67.20
26112;BME280;13829;48.990;8.346;2023-05-23T07:42:42;100592.38;;;19.87;68.45
26112;BME280;13829;48.990;8.346;2023-05-23T07:45:10;100588.91;;;20.13;69.18
26112;BME280;13829;48.990;8.346;2023-05-23T07:47:38;100580.69;;;20.19;66.61
26112;BME280;13829;48.990;8.346;2023-05-23T07:50:07;100589.03;;;20.37;65.81
26112;BME280;13829;48.990;8.346;2023-05-23T07:52:34;100583.91;;;20.31;65.46
26112;BME280;13829;48.990;8.346;2023-05-23T07:55:01;100591.66;;;20.39;64.14
26112;BME280;13829;48.990;8.346;2023-05-23T07:57:28;100583.91;;;21.10;62.13
26112;BME280;13829;48.990;8.346;2023-05-23T07:59:56;100584.19;;;21.75;59.19
26112;BME280;13829;48.990;8.346;2023-05-23T08:02:23;100583.03;;;22.71;56.57
26112;BME280;13829;48.990;8.346;2023-05-23T08:04:51;100587.59;;;22.69;55.55
26112;BME280;13829;48.990;8.346;2023-05-23T08:07:19;100598.16;;;22.07;57.10
26112;BME280;13829;48.990;8.346;2023-05-23T08:09:46;100589.47;;;22.00;59.29
26112;BME280;13829;48.990;8.346;2023-05-23T08:12:13;100593.06;;;21.77;59.54
26112;BME280;13829;48.990;8.346;2023-05-23T08:14:40;100602.03;;;21.01;59.77
26112;BME280;13829;48.990;8.346;2023-05-23T08:17:07;100594.78;;;20.51;61.65
26112;BME280;13829;48.990;8.346;2023-05-23T08:19:34;100611.16;;;20.41;62.92
26112;BME280;13829;48.990;8.346;2023-05-23T08:22:03;100607.78;;;20.07;65.72
26112;BME280;13829;48.990;8.346;2023-05-23T08:24:30;100611.75;;;19.94;65.69
26112;BME280;13829;48.990;8.346;2023-05-23T08:26:58;100617.88;;;19.97;66.00
26112;BME280;13829;48.990;8.346;2023-05-23T08:29:25;100616.59;;;19.79;67.19
26112;BME280;13829;48.990;8.346;2023-05-23T08:31:53;100613.88;;;19.81;68.87
26112;BME280;13829;48.990;8.346;2023-05-23T08:34:19;100623.50;;;19.56;68.58
26112;BME280;13829;48.990;8.346;2023-05-23T08:36:46;100617.41;;;19.51;68.33
26112;BME280;13829;48.990;8.346;2023-05-23T08:39:15;100621.06;;;19.49;68.05
26112;BME280;13829;48.990;8.346;2023-05-23T08:41:42;100624.00;;;19.38;66.60
26112;BME280;13829;48.990;8.346;2023-05-23T08:44:09;100624.38;;;19.57;71.31
26112;BME280;13829;48.990;8.346;2023-05-23T08:46:43;100622.97;;;19.75;69.76
26112;BME280;13829;48.990;8.346;2023-05-23T08:49:12;100625.69;;;19.74;66.70
26112;BME280;13829;48.990;8.346;2023-05-23T08:51:42;100630.31;;;19.98;65.82
26112;BME280;13829;48.990;8.346;2023-05-23T08:54:10;100629.25;;;20.32;68.59
26112;BME280;13829;48.990;8.346;2023-05-23T08:56:40;100620.66;;;20.49;67.96
26112;BME280;13829;48.990;8.346;2023-05-23T08:59:10;100622.81;;;20.66;65.53
26112;BME280;13829;48.990;8.346;2023-05-23T09:01:38;100617.16;;;20.76;63.33
26112;BME280;13829;48.990;8.346;2023-05-23T09:04:06;100624.25;;;20.77;64.47
26112;BME280;13829;48.990;8.346;2023-05-23T09:06:34;100622.63;;;20.73;62.64
26112;BME280;13829;48.990;8.346;2023-05-23T09:09:01;100631.19;;;20.82;62.54
26112;BME280;13829;48.990;8.346;2023-05-23T09:11:29;100624.13;;;20.81;61.85
26112;BME280;13829;48.990;8.346;2023-05-23T09:14:00;100631.47;;;21.00;59.15
26112;BME280;13829;48.990;8.346;2023-05-23T09:16:32;100637.31;;;21.37;62.42
26112;BME280;13829;48.990;8.346;2023-05-23T09:19:09;100637.34;;;21.62;57.02
26112;BME280;13829;48.990;8.346;2023-05-23T09:21:36;100640.91;;;21.62;57.87
26112;BME280;13829;48.990;8.346;2023-05-23T09:24:05;100634.06;;;21.77;55.48
26112;BME280;13829;48.990;8.346;2023-05-23T09:26:32;100640.78;;;21.89;57.60
26112;BME280;13829;48.990;8.346;2023-05-23T09:29:04;100630.16;;;21.86;55.09
26112;BME280;13829;48.990;8.346;2023-05-23T09:31:32;100643.78;;;21.80;53.77
26112;BME280;13829;48.990;8.346;2023-05-23T09:33:59;100644.78;;;21.77;55.08
26112;BME280;13829;48.990;8.346;2023-05-23T09:36:28;100640.94;;;21.85;54.53
26112;BME280;13829;48.990;8.346;2023-05-23T09:39:01;100638.72;;;21.96;53.82
26112;BME280;13829;48.990;8.346;2023-05-23T09:41:32;100638.41;;;21.81;53.60
26112;BME280;13829;48.990;8.346;2023-05-23T09:44:07;100637.72;;;21.98;54.14
26112;BME280;13829;48.990;8.346;2023-05-23T09:46:35;100643.00;;;21.78;53.20
26112;BME280;13829;48.990;8.346;2023-05-23T09:49:14;100648.50;;;21.48;53.97
26112;BME280;13829;48.990;8.346;2023-05-23T09:51:42;100650.41;;;21.21;54.42
26112;BME280;13829;48.990;8.346;2023-05-23T09:54:09;100645.00;;;21.22;58.13
26112;BME280;13829;48.990;8.346;2023-05-23T09:56:39;100647.25;;;21.33;56.13
26112;BME280;13829;48.990;8.346;2023-05-23T09:59:12;100639.72;;;21.44;57.50
26112;BME280;13829;48.990;8.346;2023-05-23T10:01:46;100644.59;;;21.58;56.44
26112;BME280;13829;48.990;8.346;2023-05-23T10:04:20;100645.59;;;21.56;56.77
26112;BME280;13829;48.990;8.346;2023-05-23T10:06:52;100651.47;;;21.65;58.10
26112;BME280;13829;48.990;8.346;2023-05-23T10:12:38;100652.63;;;21.58;57.81
26112;BME280;13829;48.990;8.346;2023-05-23T10:15:13;100649.63;;;21.67;55.51
26112;BME280;13829;48.990;8.346;2023-05-23T10:17:55;100645.59;;;21.56;53.47
26112;BME280;13829;48.990;8.346;2023-05-23T10:20:27;100647.66;;;21.22;55.49
26112;BME280;13829;48.990;8.346;2023-05-23T10:22:59;100635.97;;;21.50;56.91
26112;BME280;13829;48.990;8.346;2023-05-23T10:25:27;100632.25;;;21.54;53.74
26112;BME280;13829;48.990;8.346;2023-05-23T10:27:56;100632.63;;;21.92;53.71
26112;BME280;13829;48.990;8.346;2023-05-23T10:30:25;100632.22;;;22.25;56.10
26112;BME280;13829;48.990;8.346;2023-05-23T10:32:53;100638.09;;;22.35;53.32
26112;BME280;13829;48.990;8.346;2023-05-23T10:35:35;100647.22;;;22.53;50.84
26112;BME280;13829;48.990;8.346;2023-05-23T10:38:17;100648.03;;;22.55;49.94
26112;BME280;13829;48.990;8.346;2023-05-23T10:41:04;100640.47;;;22.43;53.03
26112;BME280;13829;48.990;8.346;2023-05-23T10:43:43;100635.09;;;22.21;52.80
26112;BME280;13829;48.990;8.346;2023-05-23T10:46:13;100641.63;;;22.13;51.88
26112;BME280;13829;48.990;8.346;2023-05-23T10:48:41;100643.72;;;22.05;51.60
26112;BME280;13829;48.990;8.346;2023-05-23T10:51:10;100640.00;;;22.09;52.59
26112;BME280;13829;48.990;8.346;2023-05-23T10:53:40;100641.56;;;22.15;53.94
26112;BME280;13829;48.990;8.346;2023-05-23T10:56:08;100647.22;;;22.53;53.42
26112;BME280;13829;48.990;8.346;2023-05-23T10:58:38;100636.91;;;22.64;52.61
26112;BME280;13829;48.990;8.346;2023-05-23T11:01:07;100638.06;;;22.59;52.05
26112;BME280;13829;48.990;8.346;2023-05-23T11:03:48;100641.91;;;22.74;55.82
26112;BME280;13829;48.990;8.346;2023-05-23T11:06:32;100636.31;;;22.78;51.48
26112;BME280;13829;48.990;8.346;2023-05-23T11:09:05;100637.72;;;23.09;51.38
26112;BME280;13829;48.990;8.346;2023-05-23T11:11:52;100630.94;;;23.21;52.76
26112;BME280;13829;48.990;8.346;2023-05-23T11:14:30;100629.84;;;22.84;49.77
26112;BME280;13829;48.990;8.346;2023-05-23T11:16:58;100628.44;;;22.75;50.26
26112;BME280;13829;48.990;8.346;2023-05-23T11:19:28;100637.22;;;22.57;55.37
26112;BME280;13829;48.990;8.346;2023-05-23T11:21:58;100639.22;;;22.29;53.64
26112;BME280;13829;48.990;8.346;2023-05-23T11:24:52;100638.25;;;22.30;56.09
26112;BME280;13829;48.990;8.346;2023-05-23T11:27:26;100640.75;;;22.13;55.02
26112;BME280;13829;48.990;8.346;2023-05-23T11:29:59;100636.88;;;22.20;54.21
26112;BME280;13829;48.990;8.346;2023-05-23T11:32:27;100636.53;;;22.29;58.52
26112;BME280;13829;48.990;8.346;2023-05-23T11:34:59;100630.25;;;22.53;57.29
26112;BME280;13829;48.990;8.346;2023-05-23T11:37:27;100631.19;;;22.74;54.98
26112;BME280;13829;48.990;8.346;2023-05-23T11:39:54;100621.53;;;22.90;54.47
26112;BME280;13829;48.990;8.346;2023-05-23T11:42:21;100623.56;;;23.06;52.06
26112;BME280;13829;48.990;8.346;2023-05-23T11:44:49;100616.06;;;23.35;52.79
26112;BME280;13829;48.990;8.346;2023-05-23T11:47:17;100619.34;;;23.41;51.05
26112;BME280;13829;48.990;8.346;2023-05-23T11:49:45;100626.50;;;23.41;52.68
26112;BME280;13829;48.990;8.346;2023-05-23T11:52:14;100624.06;;;23.14;52.17
26112;BME280;13829;48.990;8.346;2023-05-23T11:54:42;100618.13;;;22.87;51.25
26112;BME280;13829;48.990;8.346;2023-05-23T11:57:10;100626.34;;;22.61;55.96
26112;BME280;13829;48.990;8.346;2023-05-23T11:59:38;100630.38;;;22.04;55.24
26112;BME280;13829;48.990;8.346;2023-05-23T12:02:06;100629.13;;;21.66;55.21
26112;BME280;13829;48.990;8.346;2023-05-23T12:04:34;100631.19;;;21.34;56.98
26112;BME280;13829;48.990;8.346;2023-05-23T12:07:04;100635.16;;;21.23;57.72
26112;BME280;13829;48.990;8.346;2023-05-23T12:09:41;100634.34;;;20.95;58.61
26112;BME280;13829;48.990;8.346;2023-05-23T12:12:08;100641.09;;;21.06;58.38
26112;BME280;13829;48.990;8.346;2023-05-23T12:14:35;100628.66;;;21.05;58.24
26112;BME280;13829;48.990;8.346;2023-05-23T12:17:10;100628.81;;;21.00;57.12
26112;BME280;13829;48.990;8.346;2023-05-23T12:19:37;100633.28;;;20.99;57.63
26112;BME280;13829;48.990;8.346;2023-05-23T12:22:06;100625.56;;;21.17;56.70
26112;BME280;13829;48.990;8.346;2023-05-23T12:24:35;100623.47;;;21.25;58.35
26112;BME280;13829;48.990;8.346;2023-05-23T12:27:02;100622.31;;;21.32;58.02
26112;BME280;13829;48.990;8.346;2023-05-23T12:29:32;100623.38;;;21.52;59.81
26112;BME280;13829;48.990;8.346;2023-05-23T12:32:01;100615.00;;;21.63;58.57
26112;BME280;13829;48.990;8.346;2023-05-23T12:34:28;100620.66;;;21.54;57.10
26112;BME280;13829;48.990;8.346;2023-05-23T12:36:57;100615.75;;;21.66;57.72
26112;BME280;13829;48.990;8.346;2023-05-23T12:39:25;100616.91;;;21.83;55.92
26112;BME280;13829;48.990;8.346;2023-05-23T12:41:55;100611.09;;;22.18;56.49
26112;BME280;13829;48.990;8.346;2023-05-23T12:44:32;100612.50;;;22.50;54.94
26112;BME280;13829;48.990;8.346;2023-05-23T12:46:59;100604.22;;;22.77;56.92
26112;BME280;13829;48.990;8.346;2023-05-23T12:49:26;100613.00;;;23.01;53.69
26112;BME280;13829;48.990;8.346;2023-05-23T12:51:53;100612.91;;;23.04;54.00
26112;BME280;13829;48.990;8.346;2023-05-23T12:54:20;100605.28;;;23.14;52.70
26112;BME280;13829;48.990;8.346;2023-05-23T12:56:47;100602.91;;;23.28;54.28